Time;durP1;ratioP1;P1;durP2;ratioP2;P2;SDS_P1;SDS_P2;PMS_P1;PMS_P2;Temp;Humidity;BMP_temperature;BMP_pressure;BME280_temperature;BME280_humidity;BME280_pressure;Samples;Min_cycle;Max_cycle;Signal;HPM_P1;HPM_P2
2023/08/28 00:00:04;;;;;;;7.97;2.90;;;;;;;17.29;67.21;99441.25;5082022;28;20273;-72
2023/08/28 00:02:29;;;;;;;6.80;2.40;;;;;;;17.19;67.42;99438.81;5082527;28;20622;-72
2023/08/28 00:04:54;;;;;;;7.60;2.80;;;;;;;17.21;67.42;99440.09;5081543;28;20048;-73
2023/08/28 00:07:19;;;;;;;5.90;2.72;;;;;;;17.24;67.17;99444.16;5082094;28;20311;-72
2023/08/28 00:09:45;;;;;;;5.53;2.80;;;;;;;17.28;67.19;99447.91;5081923;28;20047;-73
2023/08/28 00:12:10;;;;;;;4.73;2.57;;;;;;;17.31;67.00;99444.50;5082395;28;20694;-72
2023/08/28 00:14:35;;;;;;;4.53;3.07;;;;;;;17.34;67.08;99449.38;5081358;28;20303;-72
2023/08/28 00:17:00;;;;;;;6.18;2.78;;;;;;;17.35;66.55;99445.50;5081513;28;20286;-73
2023/08/28 00:19:26;;;;;;;3.80;2.67;;;;;;;17.32;67.11;99434.28;5086203;28;20048;-72
2023/08/28 00:21:51;;;;;;;7.80;2.67;;;;;;;17.14;67.47;99439.75;5086049;28;20275;-73
2023/08/28 00:24:17;;;;;;;7.43;2.92;;;;;;;17.13;67.69;99449.13;5086706;28;20272;-82
2023/08/28 00:26:42;;;;;;;4.73;2.77;;;;;;;17.07;67.97;99440.16;5087293;28;20650;-82
2023/08/28 00:29:07;;;;;;;10.75;3.05;;;;;;;16.95;67.80;99432.50;5087795;28;20281;-83
2023/08/28 00:31:33;;;;;;;7.43;3.10;;;;;;;16.99;67.89;99440.94;5087595;28;20127;-81
2023/08/28 00:33:58;;;;;;;4.40;2.45;;;;;;;16.92;68.12;99444.94;5086543;28;20078;-82
2023/08/28 00:36:23;;;;;;;6.32;2.60;;;;;;;16.84;68.30;99440.19;5086739;28;20443;-82
2023/08/28 00:38:49;;;;;;;7.23;2.80;;;;;;;16.78;68.52;99438.72;5085301;28;20112;-82
2023/08/28 00:41:14;;;;;;;5.30;3.23;;;;;;;16.76;68.78;99429.97;5086808;28;20622;-83
2023/08/28 00:43:39;;;;;;;5.70;2.78;;;;;;;16.74;68.82;99433.03;5086197;28;20363;-83
2023/08/28 00:46:05;;;;;;;5.00;2.40;;;;;;;16.84;68.73;99442.94;5086980;28;20024;-82
2023/08/28 00:48:31;;;;;;;6.78;3.20;;;;;;;16.80;68.44;99436.47;5086547;28;20027;-82
2023/08/28 00:50:57;;;;;;;6.13;3.17;;;;;;;16.71;69.25;99441.09;5086729;28;20043;-82
2023/08/28 00:53:23;;;;;;;7.22;2.95;;;;;;;16.80;68.90;99437.28;5086121;28;20390;-84
2023/08/28 00:55:48;;;;;;;6.25;3.17;;;;;;;16.67;69.00;99444.50;5086268;28;20062;-83
2023/08/28 00:58:14;;;;;;;5.28;2.75;;;;;;;16.59;69.65;99448.00;5086781;28;20035;-82
2023/08/28 01:00:41;;;;;;;5.85;2.92;;;;;;;16.67;69.50;99451.94;5086384;28;20058;-81
2023/08/28 01:03:06;;;;;;;18.60;3.58;;;;;;;16.64;69.40;99445.09;5086075;28;20047;-82
2023/08/28 01:05:45;;;;;;;4.55;2.75;;;;;;;16.61;69.37;99437.50;5086374;28;20036;-82
2023/08/28 01:08:28;;;;;;;11.73;3.83;;;;;;;16.70;69.01;99440.28;5086371;28;20043;-82
2023/08/28 01:10:59;;;;;;;8.68;3.28;;;;;;;16.56;68.95;99432.09;5086467;28;20047;-83
2023/08/28 01:13:37;;;;;;;6.50;3.60;;;;;;;16.48;69.73;99430.09;5086631;28;20036;-83
2023/08/28 01:16:04;;;;;;;7.18;2.83;;;;;;;16.58;69.88;99440.84;5086500;28;20036;-83
2023/08/28 01:18:30;;;;;;;4.95;2.83;;;;;;;16.71;69.30;99427.34;5086598;28;20119;-82
2023/08/28 01:20:58;;;;;;;9.00;3.45;;;;;;;16.66;69.04;99431.84;5086166;28;20068;-83
2023/08/28 01:23:31;;;;;;;7.18;3.03;;;;;;;16.60;69.10;99435.06;5085945;28;20032;-83
2023/08/28 01:25:57;;;;;;;5.57;3.20;;;;;;;16.65;69.12;99429.41;5086172;28;20464;-83
2023/08/28 01:28:24;;;;;;;7.60;2.92;;;;;;;16.73;68.78;99436.09;5086450;28;20036;-83
2023/08/28 01:30:51;;;;;;;7.43;3.58;;;;;;;16.83;68.69;99433.09;5086205;28;20076;-83
2023/08/28 01:33:17;;;;;;;7.32;3.15;;;;;;;16.78;68.67;99435.97;5085416;28;20040;-73
2023/08/28 01:35:47;;;;;;;7.50;3.58;;;;;;;16.82;68.60;99431.44;5084226;28;20055;-73
2023/08/28 01:38:21;;;;;;;12.80;4.20;;;;;;;16.84;68.30;99434.69;5084781;28;20036;-72
2023/08/28 01:41:03;;;;;;;5.47;3.55;;;;;;;16.88;68.09;99421.91;5083892;28;20449;-73
2023/08/28 01:43:34;;;;;;;5.22;3.50;;;;;;;16.73;68.52;99427.84;5085246;28;20062;-81
2023/08/28 01:45:59;;;;;;;6.65;3.67;;;;;;;16.74;69.01;99426.72;5085878;28;20036;-81
2023/08/28 01:48:28;;;;;;;7.53;3.90;;;;;;;16.73;68.50;99431.41;5085725;28;20043;-83
2023/08/28 01:50:54;;;;;;;15.07;4.00;;;;;;;16.66;68.75;99431.84;5086242;28;20647;-83
2023/08/28 01:53:21;;;;;;;7.00;4.07;;;;;;;16.60;68.98;99430.34;5088162;28;20039;-81
2023/08/28 01:56:08;;;;;;;6.63;3.30;;;;;;;16.60;68.87;99422.09;5088800;28;20020;-82
2023/08/28 01:58:40;;;;;;;8.20;4.68;;;;;;;16.60;68.92;99416.59;5089215;28;20034;-82
2023/08/28 02:01:06;;;;;;;7.60;4.38;;;;;;;16.54;69.55;99421.41;5089625;28;20036;-81
2023/08/28 02:03:31;;;;;;;6.38;3.63;;;;;;;16.49;69.62;99420.72;5088640;28;20047;-80
2023/08/28 02:05:57;;;;;;;9.32;4.68;;;;;;;16.49;69.79;99420.72;5088743;28;20051;-83
2023/08/28 02:08:22;;;;;;;7.63;3.93;;;;;;;16.53;69.49;99417.06;5089302;28;20069;-81
2023/08/28 02:10:47;;;;;;;6.63;3.77;;;;;;;16.62;68.97;99417.09;5088364;28;20344;-79
2023/08/28 02:13:13;;;;;;;7.20;4.40;;;;;;;16.57;69.27;99422.72;5089159;28;20280;-81
2023/08/28 02:15:38;;;;;;;7.97;4.72;;;;;;;16.63;69.18;99410.47;5088668;28;20050;-81
2023/08/28 02:18:04;;;;;;;7.90;4.55;;;;;;;16.71;68.81;99416.31;5088870;28;20039;-80
2023/08/28 02:20:29;;;;;;;9.25;5.07;;;;;;;16.68;68.90;99402.06;5089556;28;20016;-82
2023/08/28 02:22:55;;;;;;;7.28;4.55;;;;;;;16.45;69.57;99406.78;5089559;28;20074;-80
2023/08/28 02:25:23;;;;;;;11.18;5.95;;;;;;;16.48;69.73;99403.41;5084903;28;20046;-81
2023/08/28 02:27:49;;;;;;;9.25;5.32;;;;;;;16.36;69.83;99411.41;5086084;28;20024;-82
2023/08/28 02:30:15;;;;;;;9.02;5.70;;;;;;;16.27;70.01;99414.13;5088130;28;20046;-82
2023/08/28 02:32:41;;;;;;;8.93;4.95;;;;;;;16.16;70.50;99419.84;5088865;28;20028;-81
2023/08/28 02:35:07;;;;;;;7.53;4.55;;;;;;;16.18;70.72;99420.34;5088690;28;20085;-82
2023/08/28 02:37:32;;;;;;;8.80;5.35;;;;;;;16.27;70.30;99417.66;5088648;28;20032;-83
2023/08/28 02:39:57;;;;;;;12.83;6.00;;;;;;;16.37;70.23;99419.38;5088332;28;20024;-80
2023/08/28 02:42:23;;;;;;;9.23;5.10;;;;;;;16.45;69.76;99424.09;5087934;28;20241;-72
2023/08/28 02:44:48;;;;;;;9.85;5.30;;;;;;;16.50;69.67;99422.34;5083830;28;20269;-73
2023/08/28 02:47:13;;;;;;;9.05;4.32;;;;;;;16.53;69.59;99416.22;5084211;28;20119;-72
2023/08/28 02:49:39;;;;;;;7.60;4.73;;;;;;;16.53;69.48;99421.72;5083465;28;20092;-73
2023/08/28 02:52:04;;;;;;;7.63;4.50;;;;;;;16.55;69.55;99430.50;5083720;28;20264;-72
2023/08/28 02:54:29;;;;;;;7.20;4.40;;;;;;;16.59;69.43;99449.94;5082918;28;20388;-72
2023/08/28 02:56:55;;;;;;;8.87;3.97;;;;;;;16.61;69.33;99445.75;5083426;28;20054;-72
2023/08/28 02:59:20;;;;;;;12.60;5.17;;;;;;;16.73;69.01;99447.09;5083949;28;20667;-72
2023/08/28 03:01:45;;;;;;;9.17;5.40;;;;;;;16.78;68.60;99449.75;5083377;28;20264;-75
2023/08/28 03:04:10;;;;;;;7.67;4.97;;;;;;;16.82;68.66;99460.94;5083822;28;20985;-73
2023/08/28 03:06:36;;;;;;;10.90;5.63;;;;;;;16.73;68.82;99463.63;5083779;28;20289;-73
2023/08/28 03:09:03;;;;;;;8.15;5.43;;;;;;;16.61;69.76;99462.25;5083602;28;20260;-72
2023/08/28 03:11:28;;;;;;;7.35;4.70;;;;;;;16.63;69.56;99460.00;5082850;28;20042;-73
2023/08/28 03:13:54;;;;;;;14.63;5.43;;;;;;;16.65;69.15;99452.25;5082714;28;20036;-73
2023/08/28 03:16:19;;;;;;;7.28;4.63;;;;;;;16.71;68.84;99457.63;5082620;28;20658;-72
2023/08/28 03:18:44;;;;;;;8.00;4.50;;;;;;;16.75;68.58;99459.44;5082886;28;20060;-73
2023/08/28 03:21:10;;;;;;;9.30;4.93;;;;;;;16.76;68.50;99469.31;5083201;28;20256;-72
2023/08/28 03:23:35;;;;;;;7.40;4.33;;;;;;;16.75;68.78;99472.38;5082798;28;20040;-72
2023/08/28 03:26:02;;;;;;;8.43;5.17;;;;;;;16.76;68.51;99469.31;5083928;28;20367;-72
2023/08/28 03:28:27;;;;;;;10.30;5.20;;;;;;;16.80;68.43;99462.03;5083785;28;20253;-73
2023/08/28 03:30:56;;;;;;;7.47;4.93;;;;;;;16.88;68.05;99459.66;5083073;28;20089;-72
2023/08/28 03:33:21;;;;;;;8.75;4.60;;;;;;;16.89;67.87;99462.09;5083146;28;20988;-73
2023/08/28 03:35:47;;;;;;;10.10;4.90;;;;;;;16.86;68.06;99465.47;5083638;28;20024;-72
2023/08/28 03:38:12;;;;;;;17.57;6.43;;;;;;;16.88;67.90;99460.47;5083300;28;20670;-72
2023/08/28 03:40:38;;;;;;;8.65;5.00;;;;;;;16.80;68.17;99451.03;5083351;28;20252;-72
2023/08/28 03:43:03;;;;;;;8.93;5.70;;;;;;;16.65;68.60;99457.75;5083172;28;20027;-72
2023/08/28 03:45:29;;;;;;;9.52;5.82;;;;;;;16.47;69.07;99456.00;5082917;28;20882;-72
2023/08/28 03:47:54;;;;;;;14.40;6.20;;;;;;;16.35;69.75;99460.13;5083235;28;20031;-72
2023/08/28 03:50:20;;;;;;;12.23;6.18;;;;;;;16.26;69.81;99464.72;5083598;28;20036;-72
2023/08/28 03:52:45;;;;;;;10.88;6.75;;;;;;;16.20;70.53;99459.34;5087257;28;20824;-83
2023/08/28 03:55:10;;;;;;;10.60;6.73;;;;;;;16.15;70.77;99461.41;5090151;28;20174;-80
2023/08/28 03:57:36;;;;;;;8.98;5.22;;;;;;;16.24;70.67;99453.22;5091686;28;20263;-81
2023/08/28 04:00:05;;;;;;;12.63;6.68;;;;;;;16.23;70.43;99452.44;5091513;28;20496;-82
2023/08/28 04:02:30;;;;;;;11.20;6.88;;;;;;;16.32;70.21;99449.72;5091092;28;20384;-73
2023/08/28 04:04:56;;;;;;;11.23;6.13;;;;;;;16.36;69.65;99461.75;5087345;28;20032;-73
2023/08/28 04:07:22;;;;;;;12.90;6.50;;;;;;;16.45;69.65;99456.31;5086766;28;20277;-72
2023/08/28 04:09:48;;;;;;;10.00;6.35;;;;;;;16.51;69.59;99459.75;5086385;28;20031;-72
2023/08/28 04:12:13;;;;;;;11.35;6.75;;;;;;;16.58;68.98;99451.84;5086539;28;20040;-72
2023/08/28 04:14:38;;;;;;;12.10;6.27;;;;;;;16.55;69.07;99452.50;5086193;28;20044;-72
2023/08/28 04:17:03;;;;;;;11.47;7.40;;;;;;;16.60;68.82;99449.59;5086820;28;20741;-73
2023/08/28 04:19:29;;;;;;;12.35;6.90;;;;;;;16.57;69.10;99447.50;5087322;28;20264;-72
2023/08/28 04:21:54;;;;;;;11.27;6.90;;;;;;;16.51;69.21;99440.50;5086621;28;20044;-72
2023/08/28 04:24:19;;;;;;;12.55;7.47;;;;;;;16.43;69.36;99437.34;5086745;28;20073;-71
2023/08/28 04:26:44;;;;;;;11.63;7.07;;;;;;;16.34;69.58;99430.97;5086253;28;20032;-72
2023/08/28 04:29:10;;;;;;;14.73;8.17;;;;;;;16.25;69.91;99432.84;5086397;28;20296;-71
2023/08/28 04:31:35;;;;;;;14.88;7.93;;;;;;;16.19;69.93;99427.47;5087171;28;20738;-72
2023/08/28 04:34:00;;;;;;;11.70;7.57;;;;;;;16.18;70.66;99434.09;5086639;28;20035;-72
2023/08/28 04:36:25;;;;;;;13.60;7.77;;;;;;;16.17;70.47;99431.66;5086991;28;20659;-72
2023/08/28 04:38:51;;;;;;;11.97;7.33;;;;;;;16.23;70.35;99430.44;5086370;28;20264;-71
2023/08/28 04:41:16;;;;;;;11.17;6.70;;;;;;;16.35;70.10;99427.13;5086170;28;20260;-73
2023/08/28 04:43:41;;;;;;;11.03;6.83;;;;;;;16.35;69.79;99427.13;5085961;28;20356;-72
2023/08/28 04:46:07;;;;;;;11.50;7.10;;;;;;;16.44;69.54;99438.16;5086890;28;20261;-73
2023/08/28 04:48:32;;;;;;;15.32;7.20;;;;;;;16.42;69.51;99432.97;5086973;28;20296;-71
2023/08/28 04:50:57;;;;;;;13.35;8.05;;;;;;;16.42;69.51;99437.66;5087862;28;20448;-72
2023/08/28 04:53:22;;;;;;;14.17;7.90;;;;;;;16.46;69.24;99435.91;5086384;28;20043;-73
2023/08/28 04:55:48;;;;;;;10.43;7.17;;;;;;;16.55;68.96;99442.31;5086565;28;20280;-72
2023/08/28 04:58:13;;;;;;;12.65;7.57;;;;;;;16.49;69.16;99437.25;5087248;28;20271;-72
2023/08/28 05:00:38;;;;;;;13.77;8.35;;;;;;;16.38;69.48;99437.47;5085442;28;20128;-73
2023/08/28 05:03:05;;;;;;;12.87;7.23;;;;;;;16.31;69.99;99431.63;5085139;28;20042;-83
2023/08/28 05:05:30;;;;;;;11.70;7.78;;;;;;;16.32;69.96;99433.22;5089791;28;20257;-81
2023/08/28 05:07:57;;;;;;;12.70;7.55;;;;;;;16.39;69.71;99427.31;5090421;28;20048;-82
2023/08/28 05:10:22;;;;;;;13.13;7.50;;;;;;;16.38;69.57;99428.41;5090486;28;20043;-82
2023/08/28 05:12:47;;;;;;;12.98;8.10;;;;;;;16.34;70.12;99433.72;5090325;28;20043;-72
2023/08/28 05:15:12;;;;;;;12.83;7.97;;;;;;;16.29;70.26;99431.13;5086561;28;20042;-72
2023/08/28 05:17:38;;;;;;;11.30;7.87;;;;;;;16.25;70.56;99443.88;5087019;28;20806;-73
2023/08/28 05:20:03;;;;;;;13.82;8.70;;;;;;;16.30;69.76;99452.81;5086009;28;20264;-73
2023/08/28 05:22:29;;;;;;;13.02;8.00;;;;;;;16.21;70.76;99458.22;5085630;28;20690;-72
2023/08/28 05:24:54;;;;;;;13.32;8.20;;;;;;;16.33;70.40;99463.16;5085224;28;20036;-72
2023/08/28 05:27:19;;;;;;;13.18;6.88;;;;;;;16.30;70.34;99462.97;5085869;28;20389;-72
2023/08/28 05:29:46;;;;;;;14.40;8.10;;;;;;;16.30;70.06;99473.97;5085256;28;20030;-72
2023/08/28 05:32:11;;;;;;;12.98;7.93;;;;;;;16.34;70.39;99475.00;5084854;28;20330;-72
2023/08/28 05:34:37;;;;;;;12.35;7.68;;;;;;;16.40;70.07;99462.75;5084391;28;20020;-72
2023/08/28 05:37:02;;;;;;;13.10;8.10;;;;;;;16.48;69.88;99469.44;5085215;28;21070;-72
2023/08/28 05:39:28;;;;;;;14.35;8.25;;;;;;;16.53;69.76;99463.81;5085887;28;20089;-71
2023/08/28 05:41:53;;;;;;;11.13;7.88;;;;;;;16.53;69.59;99461.06;5085199;28;20112;-72
2023/08/28 05:44:18;;;;;;;13.13;8.43;;;;;;;16.51;69.64;99471.56;5084604;28;20929;-72
2023/08/28 05:46:44;;;;;;;15.68;8.68;;;;;;;16.55;69.63;99467.06;5085355;28;20317;-73
2023/08/28 05:49:09;;;;;;;13.65;9.30;;;;;;;16.55;69.58;99471.75;5085141;28;20067;-72
2023/08/28 05:51:34;;;;;;;12.32;9.05;;;;;;;16.54;69.79;99489.38;5084823;28;20108;-72
2023/08/28 05:53:59;;;;;;;13.70;7.83;;;;;;;16.57;69.97;99486.03;5084572;28;20035;-73
2023/08/28 05:56:25;;;;;;;10.90;7.93;;;;;;;16.60;70.06;99485.38;5084822;28;20810;-72
2023/08/28 05:58:50;;;;;;;12.73;8.30;;;;;;;16.59;70.05;99492.03;5084876;28;20299;-73
2023/08/28 06:01:15;;;;;;;10.83;7.63;;;;;;;16.62;70.16;99487.84;5083873;28;20273;-72
2023/08/28 06:03:40;;;;;;;11.27;7.97;;;;;;;16.68;69.82;99492.88;5084477;28;20295;-72
2023/08/28 06:06:06;;;;;;;15.73;8.40;;;;;;;16.72;69.46;99495.03;5084696;28;20872;-72
2023/08/28 06:08:31;;;;;;;12.50;8.10;;;;;;;16.76;70.04;99496.81;5085421;28;20282;-73
2023/08/28 06:10:56;;;;;;;12.40;7.97;;;;;;;16.77;70.18;99487.47;5084651;28;20265;-73
2023/08/28 06:13:21;;;;;;;12.13;7.70;;;;;;;16.77;70.10;99486.63;5087185;28;20273;-81
2023/08/28 06:15:48;;;;;;;13.13;8.10;;;;;;;16.84;70.38;99486.22;5088628;28;20028;-83
2023/08/28 06:18:13;;;;;;;11.32;8.35;;;;;;;16.84;70.12;99478.72;5089961;28;20296;-82
2023/08/28 06:20:39;;;;;;;12.90;7.45;;;;;;;16.85;70.10;99477.63;5089619;28;20070;-82
2023/08/28 06:23:04;;;;;;;13.32;7.68;;;;;;;16.83;69.86;99477.13;5089599;28;20051;-82
2023/08/28 06:25:29;;;;;;;11.70;8.35;;;;;;;16.85;69.85;99476.81;5090021;28;20039;-82
2023/08/28 06:27:54;;;;;;;11.88;7.88;;;;;;;16.89;69.94;99484.13;5089019;28;20040;-81
2023/08/28 06:30:20;;;;;;;12.13;7.38;;;;;;;16.93;70.12;99473.28;5090082;28;20058;-79
2023/08/28 06:32:45;;;;;;;14.00;8.82;;;;;;;16.92;70.18;99475.22;5083292;28;20067;-80
2023/08/28 06:35:11;;;;;;;12.77;7.72;;;;;;;16.98;70.15;99481.44;5083949;28;20578;-83
2023/08/28 06:37:36;;;;;;;14.40;8.75;;;;;;;17.00;70.04;99467.34;5084123;28;20610;-82
2023/08/28 06:40:03;;;;;;;14.93;7.60;;;;;;;17.01;70.25;99464.28;5083486;28;20571;-84
2023/08/28 06:42:28;;;;;;;13.48;8.65;;;;;;;17.04;70.34;99462.84;5084275;28;20321;-79
2023/08/28 06:44:54;;;;;;;17.08;9.95;;;;;;;17.08;70.61;99463.84;5083297;28;20039;-82
2023/08/28 06:47:19;;;;;;;16.63;9.88;;;;;;;17.06;70.62;99463.34;5084025;28;20047;-81
2023/08/28 06:49:45;;;;;;;17.48;10.32;;;;;;;17.07;70.94;99462.19;5083833;28;20039;-81
2023/08/28 06:52:10;;;;;;;21.20;10.65;;;;;;;17.10;71.10;99461.56;5083611;28;20104;-82
2023/08/28 06:54:36;;;;;;;16.23;9.75;;;;;;;17.13;71.10;99463.72;5083296;28;20043;-80
2023/08/28 06:57:01;;;;;;;22.05;11.93;;;;;;;17.16;71.07;99451.25;5083775;28;20038;-81
2023/08/28 06:59:27;;;;;;;21.83;10.65;;;;;;;17.18;71.46;99457.25;5084166;28;20048;-81
2023/08/28 07:01:52;;;;;;;25.77;11.38;;;;;;;17.20;71.32;99456.94;5083752;28;20073;-82
2023/08/28 07:04:18;;;;;;;21.30;11.18;;;;;;;17.18;71.27;99453.69;5083011;28;20036;-82
2023/08/28 07:06:43;;;;;;;26.15;11.45;;;;;;;17.19;71.68;99449.81;5083433;28;20048;-83
2023/08/28 07:09:08;;;;;;;21.45;12.02;;;;;;;17.22;71.65;99446.41;5082813;28;20146;-82
2023/08/28 07:11:34;;;;;;;21.52;11.40;;;;;;;17.27;71.70;99443.50;5082368;28;20068;-78
2023/08/28 07:13:59;;;;;;;27.95;12.82;;;;;;;17.28;71.38;99450.66;5081868;28;20770;-83
2023/08/28 07:16:24;;;;;;;20.23;11.65;;;;;;;17.31;71.73;99455.50;5082997;28;20682;-79
2023/08/28 07:18:50;;;;;;;23.40;11.80;;;;;;;17.38;71.67;99458.63;5082786;28;20063;-78
2023/08/28 07:21:15;;;;;;;23.77;11.18;;;;;;;17.37;71.69;99447.94;5082843;28;20043;-80
2023/08/28 07:23:41;;;;;;;24.30;12.88;;;;;;;17.41;71.81;99453.63;5082348;28;20036;-80
2023/08/28 07:26:07;;;;;;;22.15;12.27;;;;;;;17.45;71.89;99449.09;5080380;28;20032;-79
2023/08/28 07:28:33;;;;;;;30.40;13.80;;;;;;;17.53;71.76;99456.59;5083187;28;20081;-80
2023/08/28 07:31:00;;;;;;;22.63;11.50;;;;;;;17.60;72.05;99451.41;5082041;28;20460;-79
2023/08/28 07:33:25;;;;;;;21.52;11.40;;;;;;;17.58;71.62;99459.19;5080517;28;20397;-79
2023/08/28 07:35:51;;;;;;;33.08;13.07;;;;;;;17.55;72.07;99461.78;5082495;28;20032;-79
2023/08/28 07:38:17;;;;;;;21.30;11.67;;;;;;;17.58;71.92;99461.94;5081883;28;20040;-80
2023/08/28 07:40:42;;;;;;;22.67;9.98;;;;;;;17.62;72.13;99464.88;5081698;28;20421;-81
2023/08/28 07:43:08;;;;;;;28.23;10.18;;;;;;;17.62;72.32;99462.94;5082241;28;20052;-81
2023/08/28 07:45:33;;;;;;;28.05;11.65;;;;;;;17.65;72.85;99471.69;5082178;28;20036;-85
2023/08/28 07:47:59;;;;;;;20.73;10.65;;;;;;;17.71;72.42;99467.66;5083558;28;20093;-85
2023/08/28 07:50:26;;;;;;;18.92;10.45;;;;;;;17.73;72.07;99470.91;5083230;28;20052;-80
2023/08/28 07:52:51;;;;;;;23.63;10.70;;;;;;;17.79;72.13;99475.13;5082291;28;20044;-82
2023/08/28 07:55:16;;;;;;;18.90;9.73;;;;;;;17.79;71.95;99474.31;5080640;28;20054;-83
2023/08/28 07:57:42;;;;;;;27.80;11.20;;;;;;;17.80;71.96;99475.94;5082609;28;20032;-81
2023/08/28 08:00:10;;;;;;;20.63;12.07;;;;;;;17.84;72.13;99472.22;5081137;28;20024;-82
2023/08/28 08:02:36;;;;;;;20.00;9.63;;;;;;;17.89;71.92;99473.19;5081149;28;20295;-82
2023/08/28 08:05:01;;;;;;;16.98;9.02;;;;;;;17.90;72.32;99474.84;5082336;28;20047;-82
2023/08/28 08:07:26;;;;;;;25.50;10.00;;;;;;;17.91;72.51;99471.75;5082776;28;20040;-84
2023/08/28 08:09:52;;;;;;;19.00;8.63;;;;;;;18.00;72.46;99480.03;5082899;28;20261;-82
2023/08/28 08:12:17;;;;;;;20.60;10.27;;;;;;;18.06;72.17;99472.44;5083164;28;20273;-82
2023/08/28 08:14:43;;;;;;;20.90;8.60;;;;;;;18.04;72.32;99475.47;5080720;28;20913;-81
2023/08/28 08:17:09;;;;;;;17.77;9.27;;;;;;;18.08;72.17;99484.75;5083230;28;20372;-86
2023/08/28 08:19:34;;;;;;;12.40;5.93;;;;;;;18.04;72.21;99475.47;5083013;28;20032;-79
2023/08/28 08:21:59;;;;;;;11.87;5.60;;;;;;;18.03;71.79;99484.91;5082280;28;20039;-79
2023/08/28 08:24:25;;;;;;;12.83;6.10;;;;;;;18.03;72.06;99473.88;5082447;28;20327;-80
2023/08/28 08:26:50;;;;;;;10.10;4.30;;;;;;;18.11;71.84;99482.47;5082869;28;20098;-80
2023/08/28 08:29:15;;;;;;;15.20;6.23;;;;;;;18.00;72.18;99479.22;5081216;28;20090;-79
2023/08/28 08:31:41;;;;;;;19.23;7.47;;;;;;;18.09;72.46;99480.84;5082057;28;20257;-81
2023/08/28 08:34:06;;;;;;;12.18;5.07;;;;;;;18.16;71.93;99487.84;5087373;28;20273;-81
2023/08/28 08:36:31;;;;;;;10.77;5.90;;;;;;;18.28;71.45;99477.00;5082455;28;20509;-81
2023/08/28 08:38:56;;;;;;;16.23;6.23;;;;;;;18.35;71.22;99478.44;5083787;28;20263;-80
2023/08/28 08:41:22;;;;;;;12.17;5.00;;;;;;;18.42;70.94;99484.31;5086170;28;20760;-81
2023/08/28 08:43:47;;;;;;;10.30;5.30;;;;;;;18.42;70.80;99489.81;5085585;28;20261;-74
2023/08/28 08:46:13;;;;;;;11.85;6.55;;;;;;;18.47;70.30;99486.09;5085810;28;20040;-75
2023/08/28 08:48:41;;;;;;;12.20;4.95;;;;;;;18.44;70.35;99493.06;5085143;28;20729;-74
2023/08/28 08:51:07;;;;;;;7.90;4.13;;;;;;;18.48;70.30;99485.78;5084263;28;20039;-75
2023/08/28 08:53:55;;;;;;;12.13;5.07;;;;;;;18.58;69.96;99494.84;5083761;28;20465;-75
2023/08/28 08:56:23;;;;;;;11.20;5.55;;;;;;;18.58;70.54;99492.09;5083863;28;20903;-75
2023/08/28 08:58:49;;;;;;;10.15;4.50;;;;;;;18.61;69.74;99491.44;5084459;28;20477;-77
2023/08/28 09:01:15;;;;;;;7.60;4.53;;;;;;;18.71;70.15;99493.06;5084328;28;20032;-76
2023/08/28 09:03:41;;;;;;;7.82;4.22;;;;;;;18.74;68.83;99490.44;5084128;28;20111;-75
2023/08/28 09:06:06;;;;;;;6.63;3.50;;;;;;;18.78;68.33;99494.19;5084964;28;20377;-75
2023/08/28 09:08:36;;;;;;;9.05;4.22;;;;;;;18.74;68.17;99500.69;5085160;28;20119;-74
2023/08/28 09:11:04;;;;;;;5.93;3.13;;;;;;;18.63;67.97;99495.50;5084980;28;20074;-76
2023/08/28 09:13:30;;;;;;;5.75;2.78;;;;;;;18.65;67.32;99493.22;5084514;28;20428;-75
2023/08/28 09:15:55;;;;;;;9.85;2.88;;;;;;;18.69;66.37;99490.63;5085159;28;20097;-74
2023/08/28 09:18:21;;;;;;;5.63;2.70;;;;;;;18.72;66.48;99487.22;5084834;28;20111;-75
2023/08/28 09:21:08;;;;;;;8.27;3.08;;;;;;;18.74;66.27;99490.44;5084784;28;20261;-75
2023/08/28 09:23:34;;;;;;;8.30;3.65;;;;;;;18.72;67.10;99492.72;5084393;28;20081;-75
2023/08/28 09:25:59;;;;;;;5.25;3.53;;;;;;;18.82;67.53;99490.75;5084893;28;20032;-75
2023/08/28 09:28:26;;;;;;;5.68;3.22;;;;;;;18.89;67.44;99482.81;5084889;28;20713;-75
2023/08/28 09:30:51;;;;;;;8.80;3.28;;;;;;;18.98;66.59;99482.75;5084261;28;20152;-75
2023/08/28 09:33:16;;;;;;;8.02;3.97;;;;;;;18.96;66.59;99485.84;5084478;28;20057;-75
2023/08/28 09:35:43;;;;;;;11.00;3.97;;;;;;;19.01;66.63;99482.94;5083669;28;20602;-75
2023/08/28 09:38:10;;;;;;;9.35;4.18;;;;;;;19.04;66.66;99475.13;5084583;28;20036;-75
2023/08/28 09:40:37;;;;;;;6.85;3.28;;;;;;;19.04;66.27;99477.91;5084323;28;20036;-76
2023/08/28 09:43:12;;;;;;;6.15;3.70;;;;;;;19.08;64.91;99478.84;5084216;28;20691;-75
2023/08/28 09:45:37;;;;;;;7.57;4.20;;;;;;;19.06;65.09;99478.38;5083653;28;20040;-75
2023/08/28 09:48:04;;;;;;;5.10;2.88;;;;;;;19.12;65.23;99471.50;5084444;28;20089;-75
2023/08/28 09:50:32;;;;;;;6.13;3.03;;;;;;;19.11;64.62;99462.44;5084362;28;20335;-75
2023/08/28 09:53:11;;;;;;;5.47;3.58;;;;;;;19.12;65.13;99460.47;5084030;28;20521;-75
2023/08/28 09:55:48;;;;;;;9.95;4.25;;;;;;;19.23;65.02;99456.25;5082088;28;20040;-75
2023/08/28 09:58:15;;;;;;;6.50;4.10;;;;;;;19.32;65.20;99458.16;5084156;28;20032;-76
2023/08/28 10:00:41;;;;;;;7.00;4.28;;;;;;;19.37;65.09;99457.97;5083704;28;20515;-75
2023/08/28 10:03:08;;;;;;;11.00;5.45;;;;;;;19.41;64.74;99464.44;5084317;28;20078;-81
2023/08/28 10:05:36;;;;;;;8.65;5.68;;;;;;;19.48;65.02;99461.16;5082433;28;20028;-80
2023/08/28 10:08:07;;;;;;;8.52;5.22;;;;;;;19.47;64.46;99456.78;5083976;28;20028;-80
2023/08/28 10:10:34;;;;;;;8.10;5.18;;;;;;;19.45;64.88;99456.28;5084460;28;20040;-81
2023/08/28 10:13:03;;;;;;;8.27;6.18;;;;;;;19.41;64.47;99450.63;5083860;28;20073;-81
2023/08/28 10:15:29;;;;;;;7.30;5.07;;;;;;;19.44;64.51;99441.69;5083499;28;20240;-80
2023/08/28 10:17:56;;;;;;;8.70;5.25;;;;;;;19.49;63.99;99446.19;5083737;28;20366;-81
2023/08/28 10:20:22;;;;;;;10.18;6.00;;;;;;;19.56;63.66;99445.69;5084008;28;20028;-81
2023/08/28 10:22:49;;;;;;;8.85;5.25;;;;;;;19.59;63.21;99445.81;5084178;28;20051;-81
2023/08/28 10:25:17;;;;;;;12.25;5.35;;;;;;;19.68;63.11;99440.25;5083457;28;20479;-81
2023/08/28 10:27:43;;;;;;;11.63;6.60;;;;;;;19.75;62.83;99450.75;5083928;28;20044;-80
2023/08/28 10:30:11;;;;;;;9.77;5.18;;;;;;;19.78;62.86;99443.75;5083985;28;20036;-81
2023/08/28 10:32:36;;;;;;;8.40;5.20;;;;;;;19.81;61.98;99446.66;5083852;28;20040;-80
2023/08/28 10:35:02;;;;;;;7.90;5.18;;;;;;;19.78;62.65;99457.59;5083475;28;20043;-81
2023/08/28 10:37:30;;;;;;;9.88;6.55;;;;;;;19.81;62.55;99451.41;5083894;28;20028;-81
2023/08/28 10:39:57;;;;;;;9.23;6.47;;;;;;;19.76;62.28;99443.28;5083603;28;20501;-81
2023/08/28 10:42:23;;;;;;;22.73;7.10;;;;;;;19.82;62.90;99448.28;5084045;28;20534;-81
2023/08/28 10:44:49;;;;;;;12.15;6.22;;;;;;;19.82;62.63;99453.00;5082477;28;20416;-81
2023/08/28 10:47:17;;;;;;;8.20;6.35;;;;;;;19.80;62.87;99460.81;5083623;28;20979;-81
2023/08/28 10:49:43;;;;;;;11.38;6.20;;;;;;;19.85;62.93;99449.59;5084020;28;20115;-81
2023/08/28 10:52:09;;;;;;;9.43;5.78;;;;;;;19.91;62.61;99450.97;5083790;28;20119;-81
2023/08/28 10:54:39;;;;;;;9.55;6.90;;;;;;;19.95;62.90;99451.16;5082967;28;20036;-81
2023/08/28 10:57:10;;;;;;;14.73;6.47;;;;;;;20.01;62.37;99454.50;5083300;28;20520;-81
2023/08/28 10:59:45;;;;;;;8.88;6.30;;;;;;;20.10;62.13;99449.75;5083622;28;20032;-81
2023/08/28 11:02:11;;;;;;;8.93;6.70;;;;;;;20.20;62.64;99439.44;5082513;28;20024;-75
2023/08/28 11:04:39;;;;;;;11.95;6.68;;;;;;;20.23;61.77;99438.75;5082458;28;20039;-76
2023/08/28 11:07:07;;;;;;;11.13;6.03;;;;;;;20.14;61.26;99439.63;5082782;28;20052;-75
2023/08/28 11:09:36;;;;;;;9.48;6.97;;;;;;;20.07;61.44;99453.16;5083402;28;20035;-74
2023/08/28 11:12:02;;;;;;;8.50;6.07;;;;;;;20.08;61.63;99448.44;5082687;28;20493;-80
2023/08/28 11:14:38;;;;;;;9.25;6.07;;;;;;;20.14;61.23;99447.09;5082460;28;20039;-81
2023/08/28 11:17:09;;;;;;;12.23;6.65;;;;;;;20.14;61.19;99449.88;5083407;28;20032;-81
2023/08/28 11:19:55;;;;;;;9.90;6.50;;;;;;;20.23;61.85;99445.09;5083117;28;20114;-81
2023/08/28 11:22:47;;;;;;;9.32;6.43;;;;;;;20.22;60.51;99450.97;5083839;28;20101;-81
2023/08/28 11:25:14;;;;;;;10.23;6.75;;;;;;;20.16;60.57;99456.69;5079197;28;20121;-81